sensor_id;sensor_type;location;lat;lon;timestamp;pressure;altitude;pressure_sealevel;temperature;humidity
10474;BME280;5284;50.446;7.904;2023-07-31T00:04:25;98194.53;;;16.73;100.00
10474;BME280;5284;50.446;7.904;2023-07-31T00:09:28;98188.78;;;16.76;100.00
10474;BME280;5284;50.446;7.904;2023-07-31T00:14:33;98187.78;;;16.77;100.00
10474;BME280;5284;50.446;7.904;2023-07-31T00:19:36;98195.66;;;16.78;100.00
10474;BME280;5284;50.446;7.904;2023-07-31T00:24:39;98183.34;;;16.84;100.00
10474;BME280;5284;50.446;7.904;2023-07-31T00:29:43;98171.25;;;16.80;100.00
10474;BME280;5284;50.446;7.904;2023-07-31T00:34:46;98170.09;;;16.74;100.00
10474;BME280;5284;50.446;7.904;2023-07-31T00:39:49;98164.19;;;16.79;100.00
10474;BME280;5284;50.446;7.904;2023-07-31T00:44:53;98157.78;;;16.80;100.00
10474;BME280;5284;50.446;7.904;2023-07-31T00:49:56;98174.97;;;16.79;100.00
10474;BME280;5284;50.446;7.904;2023-07-31T00:54:59;98160.47;;;16.80;100.00
10474;BME280;5284;50.446;7.904;2023-07-31T01:00:08;98155.91;;;16.80;100.00
10474;BME280;5284;50.446;7.904;2023-07-31T01:05:11;98154.53;;;16.84;100.00
10474;BME280;5284;50.446;7.904;2023-07-31T01:10:19;98143.25;;;16.88;100.00
10474;BME280;5284;50.446;7.904;2023-07-31T01:15:24;98147.44;;;16.91;100.00
10474;BME280;5284;50.446;7.904;2023-07-31T01:20:30;98148.47;;;16.90;100.00
10474;BME280;5284;50.446;7.904;2023-07-31T01:25:50;98138.34;;;16.92;100.00
10474;BME280;5284;50.446;7.904;2023-07-31T01:30:55;98136.47;;;16.92;100.00
10474;BME280;5284;50.446;7.904;2023-07-31T01:36:01;98141.69;;;16.94;100.00
10474;BME280;5284;50.446;7.904;2023-07-31T01:41:06;98142.81;;;16.99;100.00
10474;BME280;5284;50.446;7.904;2023-07-31T01:46:09;98129.34;;;16.99;100.00
10474;BME280;5284;50.446;7.904;2023-07-31T01:51:12;98133.91;;;16.99;100.00
10474;BME280;5284;50.446;7.904;2023-07-31T01:56:16;98129.16;;;17.01;100.00
10474;BME280;5284;50.446;7.904;2023-07-31T02:01:19;98133.72;;;17.00;100.00
10474;BME280;5284;50.446;7.904;2023-07-31T02:06:22;98135.41;;;17.01;100.00
10474;BME280;5284;50.446;7.904;2023-07-31T02:11:27;98129.16;;;17.01;100.00
10474;BME280;5284;50.446;7.904;2023-07-31T02:16:30;98125.63;;;17.00;100.00
10474;BME280;5284;50.446;7.904;2023-07-31T02:21:35;98116.22;;;16.96;100.00
10474;BME280;5284;50.446;7.904;2023-07-31T02:26:39;98108.88;;;16.90;100.00
10474;BME280;5284;50.446;7.904;2023-07-31T02:31:43;98103.47;;;16.90;100.00
10474;BME280;5284;50.446;7.904;2023-07-31T02:36:46;98099.97;;;16.90;100.00
10474;BME280;5284;50.446;7.904;2023-07-31T02:41:51;98107.41;;;16.88;100.00
10474;BME280;5284;50.446;7.904;2023-07-31T02:46:54;98105.53;;;16.88;100.00
10474;BME280;5284;50.446;7.904;2023-07-31T02:51:57;98103.03;;;16.87;100.00
10474;BME280;5284;50.446;7.904;2023-07-31T02:57:02;98108.56;;;16.86;100.00
10474;BME280;5284;50.446;7.904;2023-07-31T03:02:06;98104.88;;;16.87;100.00
10474;BME280;5284;50.446;7.904;2023-07-31T03:07:09;98107.41;;;16.88;100.00
10474;BME280;5284;50.446;7.904;2023-07-31T03:12:14;98104.69;;;16.88;100.00
10474;BME280;5284;50.446;7.904;2023-07-31T03:17:16;98098.28;;;16.89;100.00
10474;BME280;5284;50.446;7.904;2023-07-31T03:22:19;98096.78;;;16.87;100.00
10474;BME280;5284;50.446;7.904;2023-07-31T03:27:23;98104.22;;;16.85;100.00
10474;BME280;5284;50.446;7.904;2023-07-31T03:32:27;98105.06;;;16.85;100.00
10474;BME280;5284;50.446;7.904;2023-07-31T03:37:30;98099.19;;;16.82;100.00
10474;BME280;5284;50.446;7.904;2023-07-31T03:42:35;98095.47;;;16.83;100.00
10474;BME280;5284;50.446;7.904;2023-07-31T03:47:38;98090.91;;;16.83;100.00
10474;BME280;5284;50.446;7.904;2023-07-31T03:52:42;98091.75;;;16.84;100.00
10474;BME280;5284;50.446;7.904;2023-07-31T03:57:46;98091.59;;;16.85;100.00
10474;BME280;5284;50.446;7.904;2023-07-31T04:02:49;98088.56;;;16.80;100.00
10474;BME280;5284;50.446;7.904;2023-07-31T04:07:52;98073.06;;;16.82;100.00
10474;BME280;5284;50.446;7.904;2023-07-31T04:12:56;98067.03;;;16.80;100.00
10474;BME280;5284;50.446;7.904;2023-07-31T04:18:00;98058.94;;;16.80;100.00
10474;BME280;5284;50.446;7.904;2023-07-31T04:23:03;98051.22;;;16.77;100.00
10474;BME280;5284;50.446;7.904;2023-07-31T04:28:07;98058.94;;;16.80;100.00
10474;BME280;5284;50.446;7.904;2023-07-31T04:33:10;98070.38;;;16.82;100.00
10474;BME280;5284;50.446;7.904;2023-07-31T04:38:13;98059.16;;;16.79;100.00
10474;BME280;5284;50.446;7.904;2023-07-31T04:43:17;98072.06;;;16.83;100.00
10474;BME280;5284;50.446;7.904;2023-07-31T04:48:20;98070.75;;;16.79;100.00
10474;BME280;5284;50.446;7.904;2023-07-31T04:53:24;98064.28;;;16.88;100.00
10474;BME280;5284;50.446;7.904;2023-07-31T04:58:28;98064.94;;;16.90;100.00
10474;BME280;5284;50.446;7.904;2023-07-31T05:03:33;98077.41;;;16.91;100.00
10474;BME280;5284;50.446;7.904;2023-07-31T05:08:36;98062.19;;;16.98;100.00
10474;BME280;5284;50.446;7.904;2023-07-31T05:13:41;98064.22;;;16.96;100.00
10474;BME280;5284;50.446;7.904;2023-07-31T05:18:43;98062.84;;;17.00;100.00
10474;BME280;5284;50.446;7.904;2023-07-31T05:23:46;98059.75;;;17.03;100.00
10474;BME280;5284;50.446;7.904;2023-07-31T05:28:51;98062.09;;;17.06;100.00
10474;BME280;5284;50.446;7.904;2023-07-31T05:33:54;98068.41;;;17.13;100.00
10474;BME280;5284;50.446;7.904;2023-07-31T05:38:58;98063.41;;;17.10;100.00
10474;BME280;5284;50.446;7.904;2023-07-31T05:44:03;98065.56;;;17.14;100.00
10474;BME280;5284;50.446;7.904;2023-07-31T05:49:07;98045.75;;;17.07;100.00
10474;BME280;5284;50.446;7.904;2023-07-31T05:54:09;98039.06;;;17.18;100.00
10474;BME280;5284;50.446;7.904;2023-07-31T05:59:14;98035.81;;;17.22;100.00
10474;BME280;5284;50.446;7.904;2023-07-31T06:04:18;98035.00;;;17.22;100.00
10474;BME280;5284;50.446;7.904;2023-07-31T06:09:25;98033.41;;;17.27;100.00
10474;BME280;5284;50.446;7.904;2023-07-31T06:14:31;98036.53;;;17.39;100.00
10474;BME280;5284;50.446;7.904;2023-07-31T06:19:35;98033.84;;;17.53;100.00
10474;BME280;5284;50.446;7.904;2023-07-31T06:24:39;98036.44;;;17.76;100.00
10474;BME280;5284;50.446;7.904;2023-07-31T06:29:44;98039.75;;;17.92;100.00
10474;BME280;5284;50.446;7.904;2023-07-31T06:34:48;98012.09;;;18.05;100.00
10474;BME280;5284;50.446;7.904;2023-07-31T06:39:51;98020.09;;;17.98;100.00
10474;BME280;5284;50.446;7.904;2023-07-31T06:44:57;98021.94;;;18.27;100.00
10474;BME280;5284;50.446;7.904;2023-07-31T06:50:00;98016.06;;;18.58;100.00
10474;BME280;5284;50.446;7.904;2023-07-31T06:55:16;98000.56;;;18.46;100.00
10474;BME280;5284;50.446;7.904;2023-07-31T07:00:24;97993.06;;;18.27;100.00
10474;BME280;5284;50.446;7.904;2023-07-31T07:05:27;98002.47;;;18.31;100.00
10474;BME280;5284;50.446;7.904;2023-07-31T07:10:30;98006.91;;;18.59;100.00
10474;BME280;5284;50.446;7.904;2023-07-31T07:15:35;97994.88;;;18.62;100.00
10474;BME280;5284;50.446;7.904;2023-07-31T07:20:38;97997.56;;;18.62;100.00
10474;BME280;5284;50.446;7.904;2023-07-31T07:25:41;97997.97;;;18.59;100.00
10474;BME280;5284;50.446;7.904;2023-07-31T07:30:50;98003.19;;;18.60;100.00
10474;BME280;5284;50.446;7.904;2023-07-31T07:35:55;98007.13;;;18.85;100.00
10474;BME280;5284;50.446;7.904;2023-07-31T07:40:58;98008.13;;;18.78;100.00
10474;BME280;5284;50.446;7.904;2023-07-31T07:46:03;97998.28;;;18.91;100.00
10474;BME280;5284;50.446;7.904;2023-07-31T07:51:07;97984.34;;;19.49;100.00
10474;BME280;5284;50.446;7.904;2023-07-31T07:56:10;97985.38;;;19.89;100.00
10474;BME280;5284;50.446;7.904;2023-07-31T08:01:14;97983.50;;;20.68;97.93
10474;BME280;5284;50.446;7.904;2023-07-31T08:06:17;97985.00;;;21.36;94.12
10474;BME280;5284;50.446;7.904;2023-07-31T08:11:21;97993.50;;;20.48;95.61
10474;BME280;5284;50.446;7.904;2023-07-31T08:16:26;97980.97;;;20.28;97.47
10474;BME280;5284;50.446;7.904;2023-07-31T08:21:29;97991.59;;;19.83;97.85
10474;BME280;5284;50.446;7.904;2023-07-31T08:26:33;97985.25;;;19.63;98.93
10474;BME280;5284;50.446;7.904;2023-07-31T08:31:37;97979.84;;;19.63;100.00
10474;BME280;5284;50.446;7.904;2023-07-31T08:36:42;98002.84;;;19.18;100.00
10474;BME280;5284;50.446;7.904;2023-07-31T08:41:44;97994.25;;;18.87;100.00
10474;BME280;5284;50.446;7.904;2023-07-31T08:46:50;97992.00;;;18.43;100.00
10474;BME280;5284;50.446;7.904;2023-07-31T08:51:54;97981.81;;;18.45;100.00
10474;BME280;5284;50.446;7.904;2023-07-31T08:57:00;97974.16;;;18.27;100.00
10474;BME280;5284;50.446;7.904;2023-07-31T09:02:06;97983.06;;;18.07;100.00
10474;BME280;5284;50.446;7.904;2023-07-31T09:07:14;97982.09;;;18.14;100.00
10474;BME280;5284;50.446;7.904;2023-07-31T09:12:18;97969.44;;;18.50;100.00
10474;BME280;5284;50.446;7.904;2023-07-31T09:17:30;97972.94;;;18.50;100.00
10474;BME280;5284;50.446;7.904;2023-07-31T09:22:35;97969.34;;;18.23;100.00
10474;BME280;5284;50.446;7.904;2023-07-31T09:27:46;97954.91;;;18.16;100.00
10474;BME280;5284;50.446;7.904;2023-07-31T09:32:51;97957.47;;;18.38;100.00
10474;BME280;5284;50.446;7.904;2023-07-31T09:38:04;97943.63;;;18.48;100.00
10474;BME280;5284;50.446;7.904;2023-07-31T09:43:10;97952.44;;;18.56;100.00
10474;BME280;5284;50.446;7.904;2023-07-31T09:48:16;97939.19;;;18.61;100.00
10474;BME280;5284;50.446;7.904;2023-07-31T09:53:19;97926.13;;;18.64;100.00
10474;BME280;5284;50.446;7.904;2023-07-31T09:58:22;97934.41;;;18.63;100.00
10474;BME280;5284;50.446;7.904;2023-07-31T10:03:29;97929.28;;;18.95;100.00
10474;BME280;5284;50.446;7.904;2023-07-31T10:08:34;97927.56;;;18.60;100.00
10474;BME280;5284;50.446;7.904;2023-07-31T10:13:38;97919.78;;;18.51;100.00
10474;BME280;5284;50.446;7.904;2023-07-31T10:18:43;97911.09;;;18.55;100.00
10474;BME280;5284;50.446;7.904;2023-07-31T10:23:48;97915.72;;;18.41;100.00
10474;BME280;5284;50.446;7.904;2023-07-31T10:28:53;97918.59;;;18.60;100.00
10474;BME280;5284;50.446;7.904;2023-07-31T10:33:58;97904.38;;;18.51;100.00
10474;BME280;5284;50.446;7.904;2023-07-31T10:39:33;97900.16;;;18.63;100.00
10474;BME280;5284;50.446;7.904;2023-07-31T10:44:37;97898.47;;;18.62;100.00
10474;BME280;5284;50.446;7.904;2023-07-31T10:49:44;97905.09;;;18.60;100.00
10474;BME280;5284;50.446;7.904;2023-07-31T10:54:48;97895.31;;;18.59;100.00
10474;BME280;5284;50.446;7.904;2023-07-31T10:59:51;97885.88;;;18.48;100.00
10474;BME280;5284;50.446;7.904;2023-07-31T11:05:16;97866.69;;;18.64;100.00
10474;BME280;5284;50.446;7.904;2023-07-31T11:10:24;97872.88;;;18.86;100.00
10474;BME280;5284;50.446;7.904;2023-07-31T11:15:27;97862.53;;;18.96;100.00
10474;BME280;5284;50.446;7.904;2023-07-31T11:20:31;97851.03;;;19.21;100.00
10474;BME280;5284;50.446;7.904;2023-07-31T11:25:35;97859.03;;;19.42;100.00
10474;BME280;5284;50.446;7.904;2023-07-31T11:30:41;97861.19;;;19.60;100.00
10474;BME280;5284;50.446;7.904;2023-07-31T11:35:48;97864.13;;;19.65;100.00
10474;BME280;5284;50.446;7.904;2023-07-31T11:40:51;97856.16;;;19.44;100.00
10474;BME280;5284;50.446;7.904;2023-07-31T11:45:56;97866.56;;;19.53;100.00
10474;BME280;5284;50.446;7.904;2023-07-31T11:51:04;97849.94;;;19.56;100.00
10474;BME280;5284;50.446;7.904;2023-07-31T11:56:09;97852.53;;;19.84;100.00
10474;BME280;5284;50.446;7.904;2023-07-31T12:01:14;97839.22;;;19.95;100.00
10474;BME280;5284;50.446;7.904;2023-07-31T12:06:20;97840.09;;;20.02;99.83
10474;BME280;5284;50.446;7.904;2023-07-31T12:11:25;97834.47;;;20.36;97.20
10474;BME280;5284;50.446;7.904;2023-07-31T12:16:28;97821.75;;;20.36;95.35
10474;BME280;5284;50.446;7.904;2023-07-31T12:21:32;97819.41;;;20.92;92.59
10474;BME280;5284;50.446;7.904;2023-07-31T12:26:36;97819.16;;;21.13;92.33
10474;BME280;5284;50.446;7.904;2023-07-31T12:31:41;97829.03;;;21.51;89.40
10474;BME280;5284;50.446;7.904;2023-07-31T12:36:46;97823.28;;;22.03;88.22
10474;BME280;5284;50.446;7.904;2023-07-31T12:41:50;97809.91;;;22.81;82.13
10474;BME280;5284;50.446;7.904;2023-07-31T12:46:54;97812.63;;;22.81;80.89
10474;BME280;5284;50.446;7.904;2023-07-31T12:51:58;97811.28;;;23.26;78.27
10474;BME280;5284;50.446;7.904;2023-07-31T12:57:01;97792.78;;;23.34;77.64
10474;BME280;5284;50.446;7.904;2023-07-31T13:02:05;97805.59;;;23.45;77.16
10474;BME280;5284;50.446;7.904;2023-07-31T13:07:09;97801.31;;;24.26;72.56
10474;BME280;5284;50.446;7.904;2023-07-31T13:12:13;97786.06;;;23.66;74.51
10474;BME280;5284;50.446;7.904;2023-07-31T13:17:16;97793.22;;;23.32;76.06
10474;BME280;5284;50.446;7.904;2023-07-31T13:22:21;97795.25;;;23.00;78.40
10474;BME280;5284;50.446;7.904;2023-07-31T13:27:24;97806.34;;;22.38;80.08
10474;BME280;5284;50.446;7.904;2023-07-31T13:32:27;97792.84;;;21.94;81.99
10474;BME280;5284;50.446;7.904;2023-07-31T13:37:31;97806.75;;;21.80;82.13
10474;BME280;5284;50.446;7.904;2023-07-31T13:42:35;97803.66;;;21.26;85.50
10474;BME280;5284;50.446;7.904;2023-07-31T13:47:38;97787.00;;;21.16;86.15
10474;BME280;5284;50.446;7.904;2023-07-31T13:52:45;97784.81;;;20.87;88.78
10474;BME280;5284;50.446;7.904;2023-07-31T13:57:50;97774.75;;;21.01;88.87
10474;BME280;5284;50.446;7.904;2023-07-31T14:02:55;97767.50;;;20.75;89.22
10474;BME280;5284;50.446;7.904;2023-07-31T14:08:00;97781.69;;;20.90;88.73
10474;BME280;5284;50.446;7.904;2023-07-31T14:13:03;97791.66;;;20.96;88.60
10474;BME280;5284;50.446;7.904;2023-07-31T14:18:06;97763.09;;;20.81;90.20
10474;BME280;5284;50.446;7.904;2023-07-31T14:23:11;97763.13;;;20.74;90.64
10474;BME280;5284;50.446;7.904;2023-07-31T14:28:14;97754.78;;;20.76;90.59
10474;BME280;5284;50.446;7.904;2023-07-31T14:33:17;97760.78;;;20.97;91.51
10474;BME280;5284;50.446;7.904;2023-07-31T14:38:21;97767.25;;;21.84;87.00
10474;BME280;5284;50.446;7.904;2023-07-31T14:43:25;97778.91;;;22.15;82.82
10474;BME280;5284;50.446;7.904;2023-07-31T14:48:28;97763.94;;;21.38;87.00
10474;BME280;5284;50.446;7.904;2023-07-31T14:53:33;97774.31;;;21.54;86.37
10474;BME280;5284;50.446;7.904;2023-07-31T14:58:36;97778.56;;;20.80;89.02
10474;BME280;5284;50.446;7.904;2023-07-31T15:03:40;97768.75;;;20.86;89.84
10474;BME280;5284;50.446;7.904;2023-07-31T15:08:44;97768.81;;;20.60;91.82
10474;BME280;5284;50.446;7.904;2023-07-31T15:13:47;97773.81;;;20.50;92.49
10474;BME280;5284;50.446;7.904;2023-07-31T15:18:50;97779.88;;;20.13;94.26
10474;BME280;5284;50.446;7.904;2023-07-31T15:23:55;97776.72;;;19.97;95.77
10474;BME280;5284;50.446;7.904;2023-07-31T15:29:01;97786.47;;;19.72;97.57
10474;BME280;5284;50.446;7.904;2023-07-31T15:34:05;97780.25;;;19.84;97.80
10474;BME280;5284;50.446;7.904;2023-07-31T15:39:10;97771.28;;;19.64;98.22
10474;BME280;5284;50.446;7.904;2023-07-31T15:44:13;97761.69;;;19.49;100.00
10474;BME280;5284;50.446;7.904;2023-07-31T15:49:15;97753.78;;;19.41;100.00
10474;BME280;5284;50.446;7.904;2023-07-31T15:54:20;97752.28;;;19.32;100.00
10474;BME280;5284;50.446;7.904;2023-07-31T15:59:23;97733.59;;;19.43;100.00
10474;BME280;5284;50.446;7.904;2023-07-31T16:04:26;97727.59;;;19.67;99.94
10474;BME280;5284;50.446;7.904;2023-07-31T16:09:30;97720.72;;;19.91;98.56
10474;BME280;5284;50.446;7.904;2023-07-31T16:14:33;97713.03;;;19.88;98.44
10474;BME280;5284;50.446;7.904;2023-07-31T16:19:37;97714.69;;;19.76;97.40
10474;BME280;5284;50.446;7.904;2023-07-31T16:24:41;97699.91;;;19.78;97.26
10474;BME280;5284;50.446;7.904;2023-07-31T16:29:45;97700.09;;;19.64;98.65
10474;BME280;5284;50.446;7.904;2023-07-31T16:34:49;97704.84;;;19.36;100.00
10474;BME280;5284;50.446;7.904;2023-07-31T16:39:53;97701.84;;;19.11;100.00
10474;BME280;5284;50.446;7.904;2023-07-31T16:44:56;97700.31;;;18.83;100.00
10474;BME280;5284;50.446;7.904;2023-07-31T16:50:00;97695.28;;;18.33;100.00
10474;BME280;5284;50.446;7.904;2023-07-31T16:55:06;97683.47;;;18.34;100.00
10474;BME280;5284;50.446;7.904;2023-07-31T17:00:10;97669.19;;;18.40;100.00
10474;BME280;5284;50.446;7.904;2023-07-31T17:05:13;97661.00;;;18.27;100.00
10474;BME280;5284;50.446;7.904;2023-07-31T17:10:17;97660.16;;;17.99;100.00
10474;BME280;5284;50.446;7.904;2023-07-31T17:15:22;97651.66;;;17.96;100.00
10474;BME280;5284;50.446;7.904;2023-07-31T17:20:25;97654.63;;;17.73;100.00
10474;BME280;5284;50.446;7.904;2023-07-31T17:25:30;97643.63;;;17.75;100.00
10474;BME280;5284;50.446;7.904;2023-07-31T17:30:33;97633.16;;;17.65;100.00
10474;BME280;5284;50.446;7.904;2023-07-31T17:35:37;97630.31;;;17.46;100.00
10474;BME280;5284;50.446;7.904;2023-07-31T17:40:41;97624.34;;;17.29;100.00
10474;BME280;5284;50.446;7.904;2023-07-31T17:45:45;97607.94;;;17.24;100.00
10474;BME280;5284;50.446;7.904;2023-07-31T17:50:49;97599.13;;;17.16;100.00
10474;BME280;5284;50.446;7.904;2023-07-31T17:55:54;97602.94;;;17.21;100.00
10474;BME280;5284;50.446;7.904;2023-07-31T18:00:58;97598.47;;;17.07;100.00
10474;BME280;5284;50.446;7.904;2023-07-31T18:06:01;97594.09;;;17.06;100.00
10474;BME280;5284;50.446;7.904;2023-07-31T18:11:05;97589.28;;;17.02;100.00
10474;BME280;5284;50.446;7.904;2023-07-31T18:16:08;97571.69;;;17.06;100.00
10474;BME280;5284;50.446;7.904;2023-07-31T18:21:11;97569.59;;;17.01;100.00
10474;BME280;5284;50.446;7.904;2023-07-31T18:26:16;97554.44;;;17.00;100.00
10474;BME280;5284;50.446;7.904;2023-07-31T18:31:20;97551.75;;;17.00;100.00
10474;BME280;5284;50.446;7.904;2023-07-31T18:36:25;97543.66;;;17.00;100.00
10474;BME280;5284;50.446;7.904;2023-07-31T18:41:31;97544.44;;;16.94;100.00
10474;BME280;5284;50.446;7.904;2023-07-31T18:46:35;97546.13;;;16.95;100.00
10474;BME280;5284;50.446;7.904;2023-07-31T18:51:38;97545.81;;;16.84;100.00
10474;BME280;5284;50.446;7.904;2023-07-31T18:56:42;97547.09;;;16.88;100.00
10474;BME280;5284;50.446;7.904;2023-07-31T19:01:45;97546.66;;;16.85;100.00
10474;BME280;5284;50.446;7.904;2023-07-31T19:06:48;97551.16;;;16.78;100.00
10474;BME280;5284;50.446;7.904;2023-07-31T19:11:52;97538.63;;;16.70;100.00
10474;BME280;5284;50.446;7.904;2023-07-31T19:16:56;97531.19;;;16.72;100.00
10474;BME280;5284;50.446;7.904;2023-07-31T19:21:59;97531.41;;;16.71;100.00
10474;BME280;5284;50.446;7.904;2023-07-31T19:27:04;97516.63;;;16.67;100.00
10474;BME280;5284;50.446;7.904;2023-07-31T19:32:07;97511.25;;;16.67;100.00
10474;BME280;5284;50.446;7.904;2023-07-31T19:37:11;97495.31;;;16.65;100.00
10474;BME280;5284;50.446;7.904;2023-07-31T19:42:16;97489.69;;;16.60;100.00
10474;BME280;5284;50.446;7.904;2023-07-31T19:47:19;97497.94;;;16.59;100.00
10474;BME280;5284;50.446;7.904;2023-07-31T19:52:22;97495.25;;;16.59;100.00
10474;BME280;5284;50.446;7.904;2023-07-31T19:57:27;97500.38;;;16.54;100.00
10474;BME280;5284;50.446;7.904;2023-07-31T20:02:31;97493.31;;;16.53;100.00
10474;BME280;5284;50.446;7.904;2023-07-31T20:07:36;97482.69;;;16.45;100.00
10474;BME280;5284;50.446;7.904;2023-07-31T20:12:40;97479.38;;;16.43;100.00
10474;BME280;5284;50.446;7.904;2023-07-31T20:17:45;97462.97;;;16.38;100.00
10474;BME280;5284;50.446;7.904;2023-07-31T20:22:48;97467.06;;;16.34;100.00
10474;BME280;5284;50.446;7.904;2023-07-31T20:27:52;97458.28;;;16.32;100.00
10474;BME280;5284;50.446;7.904;2023-07-31T20:32:56;97452.47;;;16.28;100.00
10474;BME280;5284;50.446;7.904;2023-07-31T20:37:59;97449.53;;;16.23;100.00
10474;BME280;5284;50.446;7.904;2023-07-31T20:43:03;97435.84;;;16.18;100.00
10474;BME280;5284;50.446;7.904;2023-07-31T20:48:08;97448.91;;;16.21;100.00
10474;BME280;5284;50.446;7.904;2023-07-31T20:53:14;97422.75;;;16.15;100.00
10474;BME280;5284;50.446;7.904;2023-07-31T20:58:18;97418.66;;;16.19;100.00
10474;BME280;5284;50.446;7.904;2023-07-31T21:03:21;97409.75;;;16.19;100.00
10474;BME280;5284;50.446;7.904;2023-07-31T21:08:24;97391.56;;;16.21;100.00
10474;BME280;5284;50.446;7.904;2023-07-31T21:13:29;97382.66;;;16.20;100.00
10474;BME280;5284;50.446;7.904;2023-07-31T21:18:34;97372.53;;;16.22;100.00
10474;BME280;5284;50.446;7.904;2023-07-31T21:23:38;97341.91;;;16.23;100.00
10474;BME280;5284;50.446;7.904;2023-07-31T21:28:43;97332.19;;;16.22;100.00
10474;BME280;5284;50.446;7.904;2023-07-31T21:33:46;97320.41;;;16.23;100.00
10474;BME280;5284;50.446;7.904;2023-07-31T21:38:49;97305.91;;;16.24;100.00
10474;BME280;5284;50.446;7.904;2023-07-31T21:43:53;97293.50;;;16.23;100.00
10474;BME280;5284;50.446;7.904;2023-07-31T21:48:55;97290.34;;;16.20;100.00
10474;BME280;5284;50.446;7.904;2023-07-31T21:53:58;97298.47;;;16.26;100.00
10474;BME280;5284;50.446;7.904;2023-07-31T21:59:03;97282.50;;;16.25;100.00
10474;BME280;5284;50.446;7.904;2023-07-31T22:04:07;97270.09;;;16.24;100.00
10474;BME280;5284;50.446;7.904;2023-07-31T22:09:10;97256.84;;;16.22;100.00
10474;BME280;5284;50.446;7.904;2023-07-31T22:14:15;97253.72;;;16.19;100.00
10474;BME280;5284;50.446;7.904;2023-07-31T22:19:17;97265.09;;;16.21;100.00
10474;BME280;5284;50.446;7.904;2023-07-31T22:24:21;97243.81;;;16.26;100.00
10474;BME280;5284;50.446;7.904;2023-07-31T22:29:25;97251.72;;;16.27;100.00
10474;BME280;5284;50.446;7.904;2023-07-31T22:34:28;97241.56;;;16.29;100.00
10474;BME280;5284;50.446;7.904;2023-07-31T22:39:31;97241.19;;;16.32;100.00
10474;BME280;5284;50.446;7.904;2023-07-31T22:44:36;97243.72;;;16.34;100.00
10474;BME280;5284;50.446;7.904;2023-07-31T22:49:38;97219.50;;;16.34;100.00
10474;BME280;5284;50.446;7.904;2023-07-31T22:54:41;97213.25;;;16.33;100.00
10474;BME280;5284;50.446;7.904;2023-07-31T22:59:46;97222.19;;;16.34;100.00
10474;BME280;5284;50.446;7.904;2023-07-31T23:04:49;97196.25;;;16.33;100.00
10474;BME280;5284;50.446;7.904;2023-07-31T23:09:54;97183.59;;;16.27;100.00
10474;BME280;5284;50.446;7.904;2023-07-31T23:14:58;97176.78;;;16.31;100.00
10474;BME280;5284;50.446;7.904;2023-07-31T23:20:01;97170.59;;;16.30;100.00
10474;BME280;5284;50.446;7.904;2023-07-31T23:25:05;97169.75;;;16.30;100.00
10474;BME280;5284;50.446;7.904;2023-07-31T23:30:12;97154.44;;;16.30;100.00
10474;BME280;5284;50.446;7.904;2023-07-31T23:35:15;97148.03;;;16.31;100.00
10474;BME280;5284;50.446;7.904;2023-07-31T23:40:18;97129.66;;;16.35;100.00
10474;BME280;5284;50.446;7.904;2023-07-31T23:45:22;97117.88;;;16.36;100.00
10474;BME280;5284;50.446;7.904;2023-07-31T23:50:25;97105.16;;;16.30;100.00
10474;BME280;5284;50.446;7.904;2023-07-31T23:55:28;97077.22;;;16.24;100.00
